sensor_id;sensor_type;location;lat;lon;timestamp;P1;durP1;ratioP1;P2;durP2;ratioP2
38725;SDS011;24474;48.906;8.808;2024-02-04T00:01:51;1.90;;;0.50;;
38725;SDS011;24474;48.906;8.808;2024-02-04T00:04:19;0.60;;;0.50;;
38725;SDS011;24474;48.906;8.808;2024-02-04T00:06:45;0.50;;;0.40;;
38725;SDS011;24474;48.906;8.808;2024-02-04T00:09:10;0.63;;;0.30;;
38725;SDS011;24474;48.906;8.808;2024-02-04T00:11:37;0.40;;;0.38;;
38725;SDS011;24474;48.906;8.808;2024-02-04T00:14:03;0.68;;;0.40;;
38725;SDS011;24474;48.906;8.808;2024-02-04T00:16:28;0.65;;;0.30;;
38725;SDS011;24474;48.906;8.808;2024-02-04T00:18:57;0.60;;;0.30;;
38725;SDS011;24474;48.906;8.808;2024-02-04T00:21:23;0.95;;;0.40;;
38725;SDS011;24474;48.906;8.808;2024-02-04T00:23:48;0.30;;;0.30;;
38725;SDS011;24474;48.906;8.808;2024-02-04T00:26:14;0.60;;;0.35;;
38725;SDS011;24474;48.906;8.808;2024-02-04T00:28:40;0.30;;;0.30;;
38725;SDS011;24474;48.906;8.808;2024-02-04T00:31:08;0.30;;;0.30;;
38725;SDS011;24474;48.906;8.808;2024-02-04T00:33:33;0.30;;;0.30;;
38725;SDS011;24474;48.906;8.808;2024-02-04T00:35:59;0.40;;;0.40;;
38725;SDS011;24474;48.906;8.808;2024-02-04T00:38:24;1.38;;;0.40;;
38725;SDS011;24474;48.906;8.808;2024-02-04T00:40:50;0.30;;;0.30;;
38725;SDS011;24474;48.906;8.808;2024-02-04T00:43:18;1.23;;;0.40;;
38725;SDS011;24474;48.906;8.808;2024-02-04T00:45:43;0.28;;;0.28;;
38725;SDS011;24474;48.906;8.808;2024-02-04T00:48:09;0.20;;;0.20;;
38725;SDS011;24474;48.906;8.808;2024-02-04T00:50:34;0.52;;;0.30;;
38725;SDS011;24474;48.906;8.808;2024-02-04T00:53:00;0.52;;;0.30;;
38725;SDS011;24474;48.906;8.808;2024-02-04T00:55:25;0.30;;;0.30;;
38725;SDS011;24474;48.906;8.808;2024-02-04T00:57:51;0.20;;;0.20;;
38725;SDS011;24474;48.906;8.808;2024-02-04T01:00:17;0.40;;;0.30;;
38725;SDS011;24474;48.906;8.808;2024-02-04T01:02:43;0.43;;;0.25;;
38725;SDS011;24474;48.906;8.808;2024-02-04T01:05:08;0.40;;;0.40;;
38725;SDS011;24474;48.906;8.808;2024-02-04T01:07:34;0.40;;;0.25;;
38725;SDS011;24474;48.906;8.808;2024-02-04T01:09:59;1.02;;;0.30;;
38725;SDS011;24474;48.906;8.808;2024-02-04T01:12:25;0.22;;;0.20;;
38725;SDS011;24474;48.906;8.808;2024-02-04T01:14:51;0.28;;;0.28;;
38725;SDS011;24474;48.906;8.808;2024-02-04T01:17:16;0.30;;;0.30;;
38725;SDS011;24474;48.906;8.808;2024-02-04T01:19:42;0.47;;;0.20;;
38725;SDS011;24474;48.906;8.808;2024-02-04T01:22:08;0.35;;;0.30;;
38725;SDS011;24474;48.906;8.808;2024-02-04T01:24:33;0.28;;;0.28;;
38725;SDS011;24474;48.906;8.808;2024-02-04T01:27:05;0.20;;;0.20;;
38725;SDS011;24474;48.906;8.808;2024-02-04T01:29:31;0.98;;;0.25;;
38725;SDS011;24474;48.906;8.808;2024-02-04T01:31:56;0.20;;;0.20;;
38725;SDS011;24474;48.906;8.808;2024-02-04T01:34:25;0.20;;;0.20;;
38725;SDS011;24474;48.906;8.808;2024-02-04T01:36:50;0.30;;;0.30;;
38725;SDS011;24474;48.906;8.808;2024-02-04T01:39:16;0.70;;;0.30;;
38725;SDS011;24474;48.906;8.808;2024-02-04T01:41:44;0.30;;;0.30;;
38725;SDS011;24474;48.906;8.808;2024-02-04T01:44:11;0.80;;;0.30;;
38725;SDS011;24474;48.906;8.808;2024-02-04T01:46:36;0.98;;;0.40;;
38725;SDS011;24474;48.906;8.808;2024-02-04T01:49:02;1.13;;;0.30;;
38725;SDS011;24474;48.906;8.808;2024-02-04T01:51:27;0.32;;;0.30;;
38725;SDS011;24474;48.906;8.808;2024-02-04T01:53:53;1.15;;;0.30;;
38725;SDS011;24474;48.906;8.808;2024-02-04T01:56:19;0.80;;;0.25;;
38725;SDS011;24474;48.906;8.808;2024-02-04T01:58:45;0.68;;;0.30;;
38725;SDS011;24474;48.906;8.808;2024-02-04T02:01:11;0.43;;;0.30;;
38725;SDS011;24474;48.906;8.808;2024-02-04T02:03:38;0.30;;;0.30;;
38725;SDS011;24474;48.906;8.808;2024-02-04T02:06:04;0.30;;;0.30;;
38725;SDS011;24474;48.906;8.808;2024-02-04T02:08:31;1.20;;;0.30;;
38725;SDS011;24474;48.906;8.808;2024-02-04T02:11:02;0.30;;;0.30;;
38725;SDS011;24474;48.906;8.808;2024-02-04T02:13:33;0.57;;;0.30;;
38725;SDS011;24474;48.906;8.808;2024-02-04T02:16:03;0.55;;;0.40;;
38725;SDS011;24474;48.906;8.808;2024-02-04T02:18:48;0.28;;;0.28;;
38725;SDS011;24474;48.906;8.808;2024-02-04T02:26:48;0.77;;;0.40;;
38725;SDS011;24474;48.906;8.808;2024-02-04T02:29:15;0.60;;;0.40;;
38725;SDS011;24474;48.906;8.808;2024-02-04T02:31:41;0.32;;;0.30;;
38725;SDS011;24474;48.906;8.808;2024-02-04T02:34:08;0.40;;;0.30;;
38725;SDS011;24474;48.906;8.808;2024-02-04T02:36:36;0.75;;;0.30;;
38725;SDS011;24474;48.906;8.808;2024-02-04T02:39:13;0.63;;;0.40;;
38725;SDS011;24474;48.906;8.808;2024-02-04T02:41:44;0.47;;;0.30;;
38725;SDS011;24474;48.906;8.808;2024-02-04T02:44:16;1.45;;;0.30;;
38725;SDS011;24474;48.906;8.808;2024-02-04T02:46:42;0.20;;;0.20;;
38725;SDS011;24474;48.906;8.808;2024-02-04T02:49:10;0.73;;;0.47;;
38725;SDS011;24474;48.906;8.808;2024-02-04T02:51:36;0.38;;;0.35;;
38725;SDS011;24474;48.906;8.808;2024-02-04T02:54:01;0.45;;;0.35;;
38725;SDS011;24474;48.906;8.808;2024-02-04T02:56:27;0.40;;;0.30;;
38725;SDS011;24474;48.906;8.808;2024-02-04T02:58:53;0.73;;;0.30;;
38725;SDS011;24474;48.906;8.808;2024-02-04T03:01:18;0.63;;;0.35;;
38725;SDS011;24474;48.906;8.808;2024-02-04T03:03:44;1.15;;;0.50;;
38725;SDS011;24474;48.906;8.808;2024-02-04T03:06:09;0.63;;;0.30;;
38725;SDS011;24474;48.906;8.808;2024-02-04T03:08:35;0.38;;;0.38;;
38725;SDS011;24474;48.906;8.808;2024-02-04T03:11:01;0.60;;;0.30;;
38725;SDS011;24474;48.906;8.808;2024-02-04T03:13:28;0.40;;;0.30;;
38725;SDS011;24474;48.906;8.808;2024-02-04T03:15:55;0.30;;;0.30;;
38725;SDS011;24474;48.906;8.808;2024-02-04T03:18:21;0.80;;;0.35;;
38725;SDS011;24474;48.906;8.808;2024-02-04T03:20:47;0.30;;;0.30;;
38725;SDS011;24474;48.906;8.808;2024-02-04T03:23:12;0.30;;;0.30;;
38725;SDS011;24474;48.906;8.808;2024-02-04T03:25:38;0.20;;;0.20;;
38725;SDS011;24474;48.906;8.808;2024-02-04T03:28:03;0.55;;;0.32;;
38725;SDS011;24474;48.906;8.808;2024-02-04T03:30:29;0.50;;;0.30;;
38725;SDS011;24474;48.906;8.808;2024-02-04T03:32:55;0.30;;;0.30;;
38725;SDS011;24474;48.906;8.808;2024-02-04T03:35:21;0.75;;;0.30;;
38725;SDS011;24474;48.906;8.808;2024-02-04T03:37:46;0.60;;;0.32;;
38725;SDS011;24474;48.906;8.808;2024-02-04T03:40:12;0.30;;;0.30;;
38725;SDS011;24474;48.906;8.808;2024-02-04T03:42:38;0.40;;;0.30;;
38725;SDS011;24474;48.906;8.808;2024-02-04T03:45:05;0.40;;;0.40;;
38725;SDS011;24474;48.906;8.808;2024-02-04T03:47:31;0.32;;;0.32;;
38725;SDS011;24474;48.906;8.808;2024-02-04T03:49:57;0.30;;;0.30;;
38725;SDS011;24474;48.906;8.808;2024-02-04T03:52:22;1.20;;;0.40;;
38725;SDS011;24474;48.906;8.808;2024-02-04T03:54:48;0.47;;;0.30;;
38725;SDS011;24474;48.906;8.808;2024-02-04T03:57:13;1.45;;;0.30;;
38725;SDS011;24474;48.906;8.808;2024-02-04T03:59:39;0.47;;;0.35;;
38725;SDS011;24474;48.906;8.808;2024-02-04T04:02:05;0.75;;;0.40;;
38725;SDS011;24474;48.906;8.808;2024-02-04T04:04:30;0.60;;;0.30;;
38725;SDS011;24474;48.906;8.808;2024-02-04T04:06:56;0.30;;;0.30;;
38725;SDS011;24474;48.906;8.808;2024-02-04T04:09:22;0.30;;;0.30;;
38725;SDS011;24474;48.906;8.808;2024-02-04T04:11:48;0.35;;;0.30;;
38725;SDS011;24474;48.906;8.808;2024-02-04T04:14:14;0.40;;;0.40;;
38725;SDS011;24474;48.906;8.808;2024-02-04T04:16:40;0.43;;;0.38;;
38725;SDS011;24474;48.906;8.808;2024-02-04T04:19:07;0.30;;;0.30;;
38725;SDS011;24474;48.906;8.808;2024-02-04T04:21:33;0.30;;;0.30;;
38725;SDS011;24474;48.906;8.808;2024-02-04T04:23:58;0.30;;;0.30;;
38725;SDS011;24474;48.906;8.808;2024-02-04T04:26:24;0.57;;;0.40;;
38725;SDS011;24474;48.906;8.808;2024-02-04T04:28:50;0.65;;;0.38;;
38725;SDS011;24474;48.906;8.808;2024-02-04T04:31:15;0.25;;;0.25;;
38725;SDS011;24474;48.906;8.808;2024-02-04T04:33:41;0.30;;;0.30;;
38725;SDS011;24474;48.906;8.808;2024-02-04T04:36:07;0.65;;;0.40;;
38725;SDS011;24474;48.906;8.808;2024-02-04T04:38:33;0.30;;;0.30;;
38725;SDS011;24474;48.906;8.808;2024-02-04T04:40:58;0.20;;;0.20;;
38725;SDS011;24474;48.906;8.808;2024-02-04T04:43:24;0.43;;;0.22;;
38725;SDS011;24474;48.906;8.808;2024-02-04T04:45:51;0.20;;;0.20;;
38725;SDS011;24474;48.906;8.808;2024-02-04T04:48:17;0.20;;;0.20;;
38725;SDS011;24474;48.906;8.808;2024-02-04T04:50:43;0.38;;;0.38;;
38725;SDS011;24474;48.906;8.808;2024-02-04T04:53:09;0.30;;;0.30;;
38725;SDS011;24474;48.906;8.808;2024-02-04T04:55:35;0.30;;;0.30;;
38725;SDS011;24474;48.906;8.808;2024-02-04T04:58:00;1.20;;;0.30;;
38725;SDS011;24474;48.906;8.808;2024-02-04T05:00:26;0.25;;;0.25;;
38725;SDS011;24474;48.906;8.808;2024-02-04T05:02:51;0.28;;;0.28;;
38725;SDS011;24474;48.906;8.808;2024-02-04T05:05:17;0.22;;;0.22;;
38725;SDS011;24474;48.906;8.808;2024-02-04T05:07:43;0.30;;;0.30;;
38725;SDS011;24474;48.906;8.808;2024-02-04T05:10:09;0.25;;;0.25;;
38725;SDS011;24474;48.906;8.808;2024-02-04T05:12:34;0.22;;;0.22;;
38725;SDS011;24474;48.906;8.808;2024-02-04T05:15:00;0.20;;;0.20;;
38725;SDS011;24474;48.906;8.808;2024-02-04T05:17:26;0.40;;;0.40;;
38725;SDS011;24474;48.906;8.808;2024-02-04T05:19:52;0.30;;;0.30;;
38725;SDS011;24474;48.906;8.808;2024-02-04T05:22:18;0.30;;;0.20;;
38725;SDS011;24474;48.906;8.808;2024-02-04T05:24:43;0.30;;;0.30;;
38725;SDS011;24474;48.906;8.808;2024-02-04T05:27:09;0.30;;;0.30;;
38725;SDS011;24474;48.906;8.808;2024-02-04T05:29:35;0.20;;;0.20;;
38725;SDS011;24474;48.906;8.808;2024-02-04T05:32:00;0.52;;;0.32;;
38725;SDS011;24474;48.906;8.808;2024-02-04T05:34:26;0.55;;;0.32;;
38725;SDS011;24474;48.906;8.808;2024-02-04T05:36:52;0.30;;;0.25;;
38725;SDS011;24474;48.906;8.808;2024-02-04T05:39:17;0.30;;;0.30;;
38725;SDS011;24474;48.906;8.808;2024-02-04T05:41:43;0.30;;;0.30;;
38725;SDS011;24474;48.906;8.808;2024-02-04T05:44:09;0.22;;;0.20;;
38725;SDS011;24474;48.906;8.808;2024-02-04T05:46:35;0.20;;;0.20;;
38725;SDS011;24474;48.906;8.808;2024-02-04T05:49:01;0.20;;;0.20;;
38725;SDS011;24474;48.906;8.808;2024-02-04T05:51:27;0.20;;;0.20;;
38725;SDS011;24474;48.906;8.808;2024-02-04T05:53:53;0.30;;;0.30;;
38725;SDS011;24474;48.906;8.808;2024-02-04T05:56:19;0.20;;;0.20;;
38725;SDS011;24474;48.906;8.808;2024-02-04T05:58:45;0.43;;;0.30;;
38725;SDS011;24474;48.906;8.808;2024-02-04T06:01:11;0.30;;;0.30;;
38725;SDS011;24474;48.906;8.808;2024-02-04T06:03:37;0.32;;;0.30;;
38725;SDS011;24474;48.906;8.808;2024-02-04T06:06:03;0.20;;;0.20;;
38725;SDS011;24474;48.906;8.808;2024-02-04T06:08:29;0.20;;;0.20;;
38725;SDS011;24474;48.906;8.808;2024-02-04T06:10:54;0.20;;;0.20;;
38725;SDS011;24474;48.906;8.808;2024-02-04T06:13:20;0.68;;;0.30;;
38725;SDS011;24474;48.906;8.808;2024-02-04T06:15:46;0.22;;;0.22;;
38725;SDS011;24474;48.906;8.808;2024-02-04T06:18:11;1.02;;;0.30;;
38725;SDS011;24474;48.906;8.808;2024-02-04T06:20:37;0.30;;;0.30;;
38725;SDS011;24474;48.906;8.808;2024-02-04T06:23:04;0.30;;;0.30;;
38725;SDS011;24474;48.906;8.808;2024-02-04T06:25:30;0.20;;;0.20;;
38725;SDS011;24474;48.906;8.808;2024-02-04T06:27:55;0.63;;;0.30;;
38725;SDS011;24474;48.906;8.808;2024-02-04T06:30:21;0.30;;;0.30;;
38725;SDS011;24474;48.906;8.808;2024-02-04T06:32:50;0.50;;;0.20;;
38725;SDS011;24474;48.906;8.808;2024-02-04T06:35:16;0.63;;;0.30;;
38725;SDS011;24474;48.906;8.808;2024-02-04T06:37:42;0.30;;;0.30;;
38725;SDS011;24474;48.906;8.808;2024-02-04T06:40:10;0.25;;;0.25;;
38725;SDS011;24474;48.906;8.808;2024-02-04T06:42:36;0.55;;;0.30;;
38725;SDS011;24474;48.906;8.808;2024-02-04T06:45:01;0.30;;;0.30;;
38725;SDS011;24474;48.906;8.808;2024-02-04T06:47:27;0.30;;;0.30;;
38725;SDS011;24474;48.906;8.808;2024-02-04T06:49:53;0.57;;;0.40;;
38725;SDS011;24474;48.906;8.808;2024-02-04T06:52:19;0.22;;;0.22;;
38725;SDS011;24474;48.906;8.808;2024-02-04T06:54:44;0.40;;;0.40;;
38725;SDS011;24474;48.906;8.808;2024-02-04T06:57:10;0.40;;;0.40;;
38725;SDS011;24474;48.906;8.808;2024-02-04T06:59:36;1.77;;;0.70;;
38725;SDS011;24474;48.906;8.808;2024-02-04T07:02:01;1.80;;;0.45;;
38725;SDS011;24474;48.906;8.808;2024-02-04T07:04:27;0.20;;;0.20;;
38725;SDS011;24474;48.906;8.808;2024-02-04T07:06:53;0.45;;;0.35;;
38725;SDS011;24474;48.906;8.808;2024-02-04T07:09:18;0.40;;;0.40;;
38725;SDS011;24474;48.906;8.808;2024-02-04T07:11:44;0.93;;;0.40;;
38725;SDS011;24474;48.906;8.808;2024-02-04T07:14:10;0.40;;;0.40;;
38725;SDS011;24474;48.906;8.808;2024-02-04T07:16:36;0.30;;;0.30;;
38725;SDS011;24474;48.906;8.808;2024-02-04T07:19:02;0.30;;;0.30;;
38725;SDS011;24474;48.906;8.808;2024-02-04T07:21:28;2.45;;;1.00;;
38725;SDS011;24474;48.906;8.808;2024-02-04T07:23:53;0.90;;;0.80;;
38725;SDS011;24474;48.906;8.808;2024-02-04T07:26:19;3.90;;;2.20;;
38725;SDS011;24474;48.906;8.808;2024-02-04T07:28:44;9.30;;;4.95;;
38725;SDS011;24474;48.906;8.808;2024-02-04T07:31:10;0.70;;;0.40;;
38725;SDS011;24474;48.906;8.808;2024-02-04T07:33:36;0.32;;;0.32;;
38725;SDS011;24474;48.906;8.808;2024-02-04T07:36:02;0.40;;;0.40;;
38725;SDS011;24474;48.906;8.808;2024-02-04T07:38:28;0.40;;;0.40;;
38725;SDS011;24474;48.906;8.808;2024-02-04T07:40:54;0.40;;;0.40;;
38725;SDS011;24474;48.906;8.808;2024-02-04T07:43:21;0.80;;;0.35;;
38725;SDS011;24474;48.906;8.808;2024-02-04T07:45:46;0.85;;;0.30;;
38725;SDS011;24474;48.906;8.808;2024-02-04T07:48:12;0.88;;;0.43;;
38725;SDS011;24474;48.906;8.808;2024-02-04T07:50:39;1.23;;;0.38;;
38725;SDS011;24474;48.906;8.808;2024-02-04T07:53:04;0.30;;;0.30;;
38725;SDS011;24474;48.906;8.808;2024-02-04T07:55:30;0.43;;;0.30;;
38725;SDS011;24474;48.906;8.808;2024-02-04T07:57:55;0.30;;;0.30;;
38725;SDS011;24474;48.906;8.808;2024-02-04T08:00:21;0.20;;;0.20;;
38725;SDS011;24474;48.906;8.808;2024-02-04T08:02:47;0.95;;;0.40;;
38725;SDS011;24474;48.906;8.808;2024-02-04T08:05:13;0.30;;;0.30;;
38725;SDS011;24474;48.906;8.808;2024-02-04T08:07:38;0.80;;;0.30;;
38725;SDS011;24474;48.906;8.808;2024-02-04T08:10:04;0.32;;;0.30;;
38725;SDS011;24474;48.906;8.808;2024-02-04T08:12:30;0.60;;;0.30;;
38725;SDS011;24474;48.906;8.808;2024-02-04T08:14:56;1.17;;;0.40;;
38725;SDS011;24474;48.906;8.808;2024-02-04T08:17:22;0.55;;;0.40;;
38725;SDS011;24474;48.906;8.808;2024-02-04T08:19:51;2.63;;;1.30;;
38725;SDS011;24474;48.906;8.808;2024-02-04T08:22:17;3.85;;;1.80;;
38725;SDS011;24474;48.906;8.808;2024-02-04T08:24:44;2.97;;;1.40;;
38725;SDS011;24474;48.906;8.808;2024-02-04T08:27:10;1.80;;;0.50;;
38725;SDS011;24474;48.906;8.808;2024-02-04T08:29:35;0.85;;;0.40;;
38725;SDS011;24474;48.906;8.808;2024-02-04T08:32:01;0.32;;;0.32;;
38725;SDS011;24474;48.906;8.808;2024-02-04T08:34:27;0.35;;;0.30;;
38725;SDS011;24474;48.906;8.808;2024-02-04T08:36:53;0.40;;;0.40;;
38725;SDS011;24474;48.906;8.808;2024-02-04T08:39:19;0.30;;;0.30;;
38725;SDS011;24474;48.906;8.808;2024-02-04T08:41:44;0.40;;;0.40;;
38725;SDS011;24474;48.906;8.808;2024-02-04T08:44:10;0.30;;;0.30;;
38725;SDS011;24474;48.906;8.808;2024-02-04T08:46:35;2.35;;;0.55;;
38725;SDS011;24474;48.906;8.808;2024-02-04T08:49:01;0.30;;;0.30;;
38725;SDS011;24474;48.906;8.808;2024-02-04T08:51:27;0.32;;;0.30;;
38725;SDS011;24474;48.906;8.808;2024-02-04T08:53:52;0.30;;;0.30;;
38725;SDS011;24474;48.906;8.808;2024-02-04T08:56:18;0.43;;;0.30;;
38725;SDS011;24474;48.906;8.808;2024-02-04T08:58:45;0.30;;;0.30;;
38725;SDS011;24474;48.906;8.808;2024-02-04T09:01:10;0.30;;;0.30;;
38725;SDS011;24474;48.906;8.808;2024-02-04T09:03:36;0.60;;;0.60;;
38725;SDS011;24474;48.906;8.808;2024-02-04T09:06:02;0.80;;;0.57;;
38725;SDS011;24474;48.906;8.808;2024-02-04T09:08:28;0.40;;;0.40;;
38725;SDS011;24474;48.906;8.808;2024-02-04T09:10:53;0.40;;;0.40;;
38725;SDS011;24474;48.906;8.808;2024-02-04T09:13:19;0.30;;;0.30;;
38725;SDS011;24474;48.906;8.808;2024-02-04T09:15:45;0.40;;;0.40;;
38725;SDS011;24474;48.906;8.808;2024-02-04T09:18:10;0.40;;;0.40;;
38725;SDS011;24474;48.906;8.808;2024-02-04T09:20:36;0.30;;;0.30;;
38725;SDS011;24474;48.906;8.808;2024-02-04T09:23:02;1.33;;;0.40;;
38725;SDS011;24474;48.906;8.808;2024-02-04T09:25:28;0.55;;;0.38;;
38725;SDS011;24474;48.906;8.808;2024-02-04T09:27:54;2.35;;;1.20;;
38725;SDS011;24474;48.906;8.808;2024-02-04T09:30:20;0.95;;;0.55;;
38725;SDS011;24474;48.906;8.808;2024-02-04T09:32:45;1.23;;;0.70;;
38725;SDS011;24474;48.906;8.808;2024-02-04T09:35:12;0.73;;;0.60;;
38725;SDS011;24474;48.906;8.808;2024-02-04T09:37:37;1.10;;;0.65;;
38725;SDS011;24474;48.906;8.808;2024-02-04T09:40:03;2.10;;;0.70;;
38725;SDS011;24474;48.906;8.808;2024-02-04T09:42:29;0.40;;;0.40;;
38725;SDS011;24474;48.906;8.808;2024-02-04T09:44:56;0.98;;;0.70;;
38725;SDS011;24474;48.906;8.808;2024-02-04T09:47:22;0.45;;;0.38;;
38725;SDS011;24474;48.906;8.808;2024-02-04T09:49:48;0.40;;;0.40;;
38725;SDS011;24474;48.906;8.808;2024-02-04T09:52:14;0.98;;;0.40;;
38725;SDS011;24474;48.906;8.808;2024-02-04T09:57:13;0.60;;;0.40;;
38725;SDS011;24474;48.906;8.808;2024-02-04T09:59:43;1.02;;;0.80;;
38725;SDS011;24474;48.906;8.808;2024-02-04T10:02:09;0.40;;;0.40;;
38725;SDS011;24474;48.906;8.808;2024-02-04T10:04:35;2.70;;;0.50;;
38725;SDS011;24474;48.906;8.808;2024-02-04T10:07:01;0.30;;;0.30;;
38725;SDS011;24474;48.906;8.808;2024-02-04T10:09:27;0.70;;;0.50;;
38725;SDS011;24474;48.906;8.808;2024-02-04T10:11:54;1.15;;;0.55;;
38725;SDS011;24474;48.906;8.808;2024-02-04T10:14:20;1.38;;;0.50;;
38725;SDS011;24474;48.906;8.808;2024-02-04T10:16:46;0.30;;;0.30;;
38725;SDS011;24474;48.906;8.808;2024-02-04T10:19:11;0.32;;;0.30;;
38725;SDS011;24474;48.906;8.808;2024-02-04T10:21:37;0.30;;;0.30;;
38725;SDS011;24474;48.906;8.808;2024-02-04T10:24:03;0.43;;;0.30;;
38725;SDS011;24474;48.906;8.808;2024-02-04T10:26:30;0.30;;;0.30;;
38725;SDS011;24474;48.906;8.808;2024-02-04T10:29:02;0.55;;;0.28;;
38725;SDS011;24474;48.906;8.808;2024-02-04T10:31:28;0.20;;;0.20;;
38725;SDS011;24474;48.906;8.808;2024-02-04T10:33:54;0.30;;;0.30;;
38725;SDS011;24474;48.906;8.808;2024-02-04T10:36:20;0.30;;;0.30;;
38725;SDS011;24474;48.906;8.808;2024-02-04T10:38:46;0.38;;;0.38;;
38725;SDS011;24474;48.906;8.808;2024-02-04T10:41:14;0.52;;;0.30;;
38725;SDS011;24474;48.906;8.808;2024-02-04T10:43:42;0.63;;;0.60;;
38725;SDS011;24474;48.906;8.808;2024-02-04T10:46:09;0.88;;;0.50;;
38725;SDS011;24474;48.906;8.808;2024-02-04T10:48:42;3.83;;;1.85;;
38725;SDS011;24474;48.906;8.808;2024-02-04T10:51:12;0.50;;;0.38;;
38725;SDS011;24474;48.906;8.808;2024-02-04T10:53:42;1.92;;;0.45;;
38725;SDS011;24474;48.906;8.808;2024-02-04T10:56:14;0.40;;;0.40;;
38725;SDS011;24474;48.906;8.808;2024-02-04T10:58:47;0.77;;;0.77;;
38725;SDS011;24474;48.906;8.808;2024-02-04T11:01:13;2.60;;;0.40;;
38725;SDS011;24474;48.906;8.808;2024-02-04T11:03:40;1.45;;;0.95;;
38725;SDS011;24474;48.906;8.808;2024-02-04T11:06:11;0.50;;;0.45;;
38725;SDS011;24474;48.906;8.808;2024-02-04T11:08:38;0.47;;;0.38;;
38725;SDS011;24474;48.906;8.808;2024-02-04T11:11:04;0.40;;;0.40;;
38725;SDS011;24474;48.906;8.808;2024-02-04T11:13:30;0.95;;;0.70;;
38725;SDS011;24474;48.906;8.808;2024-02-04T11:15:57;0.50;;;0.50;;
38725;SDS011;24474;48.906;8.808;2024-02-04T11:26:28;1.25;;;0.50;;
38725;SDS011;24474;48.906;8.808;2024-02-04T11:28:54;1.05;;;0.50;;
38725;SDS011;24474;48.906;8.808;2024-02-04T11:31:21;0.55;;;0.35;;
38725;SDS011;24474;48.906;8.808;2024-02-04T11:33:50;3.72;;;2.08;;
38725;SDS011;24474;48.906;8.808;2024-02-04T11:36:17;11.95;;;5.55;;
38725;SDS011;24474;48.906;8.808;2024-02-04T11:38:43;15.98;;;6.30;;
38725;SDS011;24474;48.906;8.808;2024-02-04T11:41:20;5.85;;;2.58;;
38725;SDS011;24474;48.906;8.808;2024-02-04T11:43:55;6.03;;;3.20;;
38725;SDS011;24474;48.906;8.808;2024-02-04T11:46:21;0.75;;;0.75;;
38725;SDS011;24474;48.906;8.808;2024-02-04T11:48:53;1.48;;;0.77;;
38725;SDS011;24474;48.906;8.808;2024-02-04T11:51:22;1.63;;;1.05;;
38725;SDS011;24474;48.906;8.808;2024-02-04T11:53:49;0.50;;;0.50;;
38725;SDS011;24474;48.906;8.808;2024-02-04T11:56:16;0.57;;;0.47;;
38725;SDS011;24474;48.906;8.808;2024-02-04T11:58:43;1.50;;;0.82;;
38725;SDS011;24474;48.906;8.808;2024-02-04T12:01:09;1.83;;;0.90;;
38725;SDS011;24474;48.906;8.808;2024-02-04T12:03:36;0.90;;;0.60;;
38725;SDS011;24474;48.906;8.808;2024-02-04T12:06:02;0.75;;;0.60;;
38725;SDS011;24474;48.906;8.808;2024-02-04T12:08:29;1.48;;;0.90;;
38725;SDS011;24474;48.906;8.808;2024-02-04T12:10:57;0.82;;;0.70;;
38725;SDS011;24474;48.906;8.808;2024-02-04T12:13:24;1.23;;;0.60;;
38725;SDS011;24474;48.906;8.808;2024-02-04T12:15:50;1.08;;;0.50;;
38725;SDS011;24474;48.906;8.808;2024-02-04T12:18:16;1.13;;;0.75;;
38725;SDS011;24474;48.906;8.808;2024-02-04T12:20:45;4.47;;;1.70;;
38725;SDS011;24474;48.906;8.808;2024-02-04T12:23:13;3.38;;;1.90;;
38725;SDS011;24474;48.906;8.808;2024-02-04T12:25:39;4.82;;;2.42;;
38725;SDS011;24474;48.906;8.808;2024-02-04T12:28:05;5.75;;;3.42;;
38725;SDS011;24474;48.906;8.808;2024-02-04T12:30:31;2.47;;;1.45;;
38725;SDS011;24474;48.906;8.808;2024-02-04T12:33:01;4.65;;;2.40;;
38725;SDS011;24474;48.906;8.808;2024-02-04T12:35:29;5.65;;;2.70;;
38725;SDS011;24474;48.906;8.808;2024-02-04T12:37:58;0.75;;;0.63;;
38725;SDS011;24474;48.906;8.808;2024-02-04T12:40:25;1.33;;;0.90;;
38725;SDS011;24474;48.906;8.808;2024-02-04T12:42:56;3.00;;;1.50;;
38725;SDS011;24474;48.906;8.808;2024-02-04T12:45:22;3.42;;;1.95;;
38725;SDS011;24474;48.906;8.808;2024-02-04T12:47:49;2.63;;;1.60;;
38725;SDS011;24474;48.906;8.808;2024-02-04T12:50:16;4.00;;;2.35;;
38725;SDS011;24474;48.906;8.808;2024-02-04T12:52:43;2.17;;;1.48;;
38725;SDS011;24474;48.906;8.808;2024-02-04T12:55:18;3.03;;;1.20;;
38725;SDS011;24474;48.906;8.808;2024-02-04T12:57:48;1.42;;;0.93;;
38725;SDS011;24474;48.906;8.808;2024-02-04T13:00:18;4.53;;;2.53;;
38725;SDS011;24474;48.906;8.808;2024-02-04T13:02:44;1.52;;;0.90;;
38725;SDS011;24474;48.906;8.808;2024-02-04T13:05:23;1.20;;;1.10;;
38725;SDS011;24474;48.906;8.808;2024-02-04T13:07:51;2.08;;;1.25;;
38725;SDS011;24474;48.906;8.808;2024-02-04T13:10:18;4.85;;;0.75;;
38725;SDS011;24474;48.906;8.808;2024-02-04T13:12:43;1.52;;;0.60;;
38725;SDS011;24474;48.906;8.808;2024-02-04T13:15:09;2.45;;;1.40;;
38725;SDS011;24474;48.906;8.808;2024-02-04T13:17:35;1.55;;;0.90;;
38725;SDS011;24474;48.906;8.808;2024-02-04T13:20:01;1.15;;;0.70;;
38725;SDS011;24474;48.906;8.808;2024-02-04T13:22:26;0.90;;;0.60;;
38725;SDS011;24474;48.906;8.808;2024-02-04T13:24:52;1.08;;;0.68;;
38725;SDS011;24474;48.906;8.808;2024-02-04T13:27:19;0.57;;;0.50;;
38725;SDS011;24474;48.906;8.808;2024-02-04T13:29:47;0.55;;;0.40;;
38725;SDS011;24474;48.906;8.808;2024-02-04T13:32:14;0.60;;;0.50;;
38725;SDS011;24474;48.906;8.808;2024-02-04T13:34:40;0.73;;;0.60;;
38725;SDS011;24474;48.906;8.808;2024-02-04T13:37:06;1.20;;;0.52;;
38725;SDS011;24474;48.906;8.808;2024-02-04T13:39:32;1.55;;;0.68;;
38725;SDS011;24474;48.906;8.808;2024-02-04T13:41:57;1.10;;;0.50;;
38725;SDS011;24474;48.906;8.808;2024-02-04T13:44:23;1.08;;;0.60;;
38725;SDS011;24474;48.906;8.808;2024-02-04T13:46:49;2.72;;;0.80;;
38725;SDS011;24474;48.906;8.808;2024-02-04T13:49:14;1.95;;;0.70;;
38725;SDS011;24474;48.906;8.808;2024-02-04T13:51:40;0.60;;;0.50;;
38725;SDS011;24474;48.906;8.808;2024-02-04T13:54:06;0.63;;;0.60;;
38725;SDS011;24474;48.906;8.808;2024-02-04T13:56:31;0.60;;;0.60;;
38725;SDS011;24474;48.906;8.808;2024-02-04T13:58:58;0.77;;;0.60;;
38725;SDS011;24474;48.906;8.808;2024-02-04T14:01:23;0.98;;;0.70;;
38725;SDS011;24474;48.906;8.808;2024-02-04T14:03:49;0.88;;;0.60;;
38725;SDS011;24474;48.906;8.808;2024-02-04T14:06:15;1.40;;;1.20;;
38725;SDS011;24474;48.906;8.808;2024-02-04T14:08:41;4.90;;;3.10;;
38725;SDS011;24474;48.906;8.808;2024-02-04T14:11:06;7.63;;;4.72;;
38725;SDS011;24474;48.906;8.808;2024-02-04T14:13:32;2.90;;;1.88;;
38725;SDS011;24474;48.906;8.808;2024-02-04T14:15:58;4.15;;;2.70;;
38725;SDS011;24474;48.906;8.808;2024-02-04T14:18:23;5.28;;;3.15;;
38725;SDS011;24474;48.906;8.808;2024-02-04T14:20:50;1.48;;;1.30;;
38725;SDS011;24474;48.906;8.808;2024-02-04T14:23:15;3.95;;;1.50;;
38725;SDS011;24474;48.906;8.808;2024-02-04T14:25:41;2.08;;;1.00;;
38725;SDS011;24474;48.906;8.808;2024-02-04T14:28:07;1.23;;;0.93;;
38725;SDS011;24474;48.906;8.808;2024-02-04T14:30:32;0.80;;;0.80;;
38725;SDS011;24474;48.906;8.808;2024-02-04T14:32:58;1.15;;;1.02;;
38725;SDS011;24474;48.906;8.808;2024-02-04T14:35:24;2.28;;;0.80;;
38725;SDS011;24474;48.906;8.808;2024-02-04T14:37:49;1.33;;;0.90;;
38725;SDS011;24474;48.906;8.808;2024-02-04T14:40:15;4.45;;;1.83;;
38725;SDS011;24474;48.906;8.808;2024-02-04T14:42:43;3.47;;;1.30;;
38725;SDS011;24474;48.906;8.808;2024-02-04T14:45:09;1.33;;;1.10;;
38725;SDS011;24474;48.906;8.808;2024-02-04T14:47:36;1.52;;;1.10;;
38725;SDS011;24474;48.906;8.808;2024-02-04T14:50:02;1.02;;;0.90;;
38725;SDS011;24474;48.906;8.808;2024-02-04T14:52:27;1.60;;;1.10;;
38725;SDS011;24474;48.906;8.808;2024-02-04T14:54:54;2.58;;;1.80;;
38725;SDS011;24474;48.906;8.808;2024-02-04T14:57:20;1.33;;;1.20;;
38725;SDS011;24474;48.906;8.808;2024-02-04T14:59:45;2.22;;;1.30;;